Terminal Aerodrome Forecast
Issued by NWS

Home | Current Version | Previous Version | Text Only | Print | Product List | Glossary On
Versions: 1 2 3 4 5 6 7 8 9 10 11 12 13 14 15 16 17 18 19 20 21 22 23
671
FTUS46 KPDT 241740
TAFYKM
TAF
KYKM 241740Z 2418/2518 23006KT P6SM SCT060 SCT200
     FM242300 23006KT P6SM FEW100 SCT200
     FM250800 27006KT 5SM BR SCT005=

USA.gov is the U.S. government's official web portal to all federal, state and local government web resources and services.